Time;durP1;ratioP1;P1;durP2;ratioP2;P2;SDS_P1;SDS_P2;PMS_P1;PMS_P2;Temp;Humidity;BMP_temperature;BMP_pressure;BME280_temperature;BME280_humidity;BME280_pressure;Samples;Min_cycle;Max_cycle;Signal;HPM_P1;HPM_P2
2021/11/30 00:00:10;;;;;;;11.70;8.07;;;;;;;3.16;82.99;100402.50;5074110;28;20482;-76
2021/11/30 00:02:36;;;;;;;10.30;7.68;;;;;;;3.16;82.97;100405.19;5083964;28;20425;-76
2021/11/30 00:05:02;;;;;;;11.20;7.20;;;;;;;3.21;82.85;100394.69;5079739;28;20870;-76
2021/11/30 00:07:27;;;;;;;13.10;7.93;;;;;;;3.24;82.56;100402.31;5074028;28;20402;-76
2021/11/30 00:12:25;;;;;;;15.25;7.85;;;;;;;3.21;82.81;100398.19;5074741;28;20482;-76
2021/11/30 00:14:53;;;;;;;12.93;7.95;;;;;;;3.24;82.52;100403.16;5070642;28;20745;-76
2021/11/30 00:17:20;;;;;;;13.48;7.95;;;;;;;3.27;82.59;100401.91;5076852;28;20410;-76
2021/11/30 00:19:47;;;;;;;10.85;7.80;;;;;;;3.23;82.66;100416.75;5055744;28;20874;-76
2021/11/30 00:22:15;;;;;;;10.65;7.20;;;;;;;3.23;82.74;100411.41;5074108;28;20411;-76
2021/11/30 00:24:40;;;;;;;10.43;7.03;;;;;;;3.21;82.82;100416.09;5088269;28;20422;-76
2021/11/30 00:27:06;;;;;;;12.93;7.00;;;;;;;3.24;81.84;100410.34;5090472;28;20500;-76
2021/11/30 00:29:33;;;;;;;11.18;6.68;;;;;;;3.29;81.45;100419.47;5073310;28;20408;-76
2021/11/30 00:31:58;;;;;;;13.35;7.47;;;;;;;3.27;81.47;100426.84;5077690;28;20408;-76
2021/11/30 00:34:25;;;;;;;9.67;6.63;;;;;;;3.26;81.79;100432.41;5081639;28;20399;-76
2021/11/30 00:36:51;;;;;;;10.43;7.00;;;;;;;3.27;81.56;100436.72;5073331;28;20404;-76
2021/11/30 00:39:17;;;;;;;12.00;7.57;;;;;;;3.30;81.73;100436.31;5078559;28;20406;-76
2021/11/30 00:41:48;;;;;;;11.70;7.43;;;;;;;3.26;81.38;100437.78;5084448;28;20959;-76
2021/11/30 00:44:15;;;;;;;11.63;6.88;;;;;;;3.30;81.58;100439.84;5074813;28;20461;-76
2021/11/30 00:46:41;;;;;;;11.90;7.00;;;;;;;3.34;80.90;100448.31;5067821;28;20422;-76
2021/11/30 00:49:08;;;;;;;11.57;6.70;;;;;;;3.35;80.80;100442.78;5091087;28;20862;-76
2021/11/30 00:51:37;;;;;;;8.88;6.03;;;;;;;3.31;80.98;100441.50;5084263;28;20445;-76
2021/11/30 00:54:08;;;;;;;7.93;5.80;;;;;;;3.32;80.70;100435.13;5079670;28;20426;-76
2021/11/30 00:56:36;;;;;;;11.45;5.72;;;;;;;3.43;80.33;100437.22;5077294;28;20892;-76
2021/11/30 00:59:01;;;;;;;7.63;5.68;;;;;;;3.48;79.54;100434.78;5072420;28;20403;-76
2021/11/30 01:01:29;;;;;;;10.53;6.77;;;;;;;3.35;80.18;100423.19;5078403;28;20975;-76
2021/11/30 01:03:54;;;;;;;11.85;6.55;;;;;;;3.35;80.21;100431.22;5068281;28;20752;-76
2021/11/30 01:06:19;;;;;;;10.17;6.30;;;;;;;3.35;80.39;100433.91;5083467;28;20490;-76
2021/11/30 01:08:45;;;;;;;9.20;5.57;;;;;;;3.32;80.69;100437.81;5072988;28;20402;-76
2021/11/30 01:11:10;;;;;;;8.37;5.37;;;;;;;3.35;80.19;100434.72;5072422;28;20410;-76
2021/11/30 01:13:35;;;;;;;11.33;5.80;;;;;;;3.37;80.10;100447.91;5073128;28;20407;-76
2021/11/30 01:16:03;;;;;;;9.20;5.70;;;;;;;3.35;80.24;100441.94;5089297;28;20469;-76
2021/11/30 01:18:28;;;;;;;10.80;6.10;;;;;;;3.33;80.47;100446.66;5100509;28;20977;-76
2021/11/30 01:20:53;;;;;;;11.93;5.77;;;;;;;3.35;80.51;100445.44;5082382;28;20496;-76
2021/11/30 01:23:20;;;;;;;7.83;5.20;;;;;;;3.28;80.22;100457.13;5082217;28;20471;-76
2021/11/30 01:25:45;;;;;;;8.02;5.30;;;;;;;3.29;80.47;100442.72;5073025;28;20384;-76
2021/11/30 01:28:11;;;;;;;11.68;5.80;;;;;;;3.30;80.23;100455.91;5089070;28;20398;-76
2021/11/30 01:30:37;;;;;;;14.38;5.78;;;;;;;3.28;80.41;100451.78;5080242;28;20412;-76
2021/11/30 01:33:05;;;;;;;7.70;5.30;;;;;;;3.27;80.18;100455.47;5078417;28;20477;-76
2021/11/30 01:35:30;;;;;;;8.95;4.65;;;;;;;3.29;80.00;100459.63;5088482;28;20395;-76
2021/11/30 01:37:56;;;;;;;9.53;4.77;;;;;;;3.25;79.92;100458.38;5089269;28;20761;-76
2021/11/30 01:40:23;;;;;;;7.73;4.50;;;;;;;3.24;80.23;100456.72;5079962;28;20839;-76
2021/11/30 01:42:51;;;;;;;6.78;4.20;;;;;;;3.33;80.03;100460.88;5072267;28;20924;-76
2021/11/30 01:49:08;;;;;;;6.53;4.88;;;;;;;3.34;79.65;100469.72;5078950;28;20431;-76
2021/11/30 01:50:44;;;;;;;8.43;4.07;;;;;;;3.39;79.17;100461.94;5070266;28;20443;-76
2021/11/30 01:53:09;;;;;;;12.15;5.07;;;;;;;3.34;79.50;100465.22;5072576;28;20444;-76
2021/11/30 01:55:35;;;;;;;8.05;4.55;;;;;;;3.33;79.10;100460.88;5088739;28;20405;-76
2021/11/30 01:58:02;;;;;;;6.75;4.57;;;;;;;3.39;78.70;100459.28;5077949;28;20383;-76
2021/11/30 02:00:28;;;;;;;8.95;4.65;;;;;;;3.40;78.88;100456.38;5083081;28;20406;-76
2021/11/30 02:02:54;;;;;;;7.55;5.25;;;;;;;3.43;78.80;100452.47;5079083;28;20414;-76
2021/11/30 02:05:19;;;;;;;8.37;4.80;;;;;;;3.33;79.21;100452.84;5075257;28;20885;-76
2021/11/30 02:07:44;;;;;;;6.63;4.77;;;;;;;3.22;79.73;100445.38;5076895;28;20394;-76
2021/11/30 02:10:13;;;;;;;7.90;4.93;;;;;;;3.20;79.81;100454.59;5082598;28;20410;-76
2021/11/30 02:12:40;;;;;;;7.97;4.75;;;;;;;3.24;79.37;100453.19;5084899;28;20440;-76
2021/11/30 02:15:08;;;;;;;9.10;5.50;;;;;;;3.32;79.61;100447.69;5075917;28;20384;-76
2021/11/30 02:17:34;;;;;;;11.15;6.13;;;;;;;3.27;79.54;100456.31;5078271;28;20396;-76
2021/11/30 02:20:00;;;;;;;5.10;4.63;;;;;;;3.23;79.31;100456.91;5078765;28;20383;-76
2021/11/30 02:22:27;;;;;;;9.53;4.90;;;;;;;3.31;79.06;100454.06;5070530;28;20426;-75
2021/11/30 02:24:52;;;;;;;6.10;5.07;;;;;;;3.38;79.00;100454.94;5087379;28;20402;-76
2021/11/30 02:27:19;;;;;;;5.90;4.53;;;;;;;3.33;78.88;100458.19;5071356;28;20889;-76
2021/11/30 02:29:45;;;;;;;10.02;4.90;;;;;;;3.23;79.29;100447.00;5071940;28;20399;-76
2021/11/30 02:32:10;;;;;;;6.93;4.72;;;;;;;3.28;79.32;100449.09;5082301;28;20409;-76
2021/11/30 02:34:36;;;;;;;8.27;4.88;;;;;;;3.29;78.84;100442.72;5083768;28;21103;-76
2021/11/30 02:37:11;;;;;;;9.90;4.43;;;;;;;3.23;78.58;100443.53;5072173;28;20410;-76
2021/11/30 02:39:36;;;;;;;8.93;4.15;;;;;;;3.30;78.29;100441.69;5061534;28;20418;-76
2021/11/30 02:42:05;;;;;;;10.02;5.30;;;;;;;3.25;78.75;100447.66;5073534;28;20427;-76
2021/11/30 02:44:31;;;;;;;11.55;4.60;;;;;;;3.38;78.46;100449.56;5080942;28;20910;-76
2021/11/30 02:47:03;;;;;;;7.22;4.55;;;;;;;3.39;78.27;100446.69;5053240;28;20419;-76
2021/11/30 02:49:32;;;;;;;7.95;5.03;;;;;;;3.36;78.65;100446.28;5057545;28;20412;-76
2021/11/30 02:52:08;;;;;;;8.98;4.35;;;;;;;3.18;79.32;100449.47;5070638;28;20449;-76
2021/11/30 02:54:46;;;;;;;7.82;4.90;;;;;;;3.21;79.33;100445.56;5087762;28;20382;-76
2021/11/30 02:57:14;;;;;;;7.72;5.30;;;;;;;3.21;79.36;100446.38;5071576;28;20855;-76
2021/11/30 02:59:42;;;;;;;7.78;4.60;;;;;;;3.20;79.39;100450.09;5072916;28;20415;-76
2021/11/30 03:02:20;;;;;;;6.88;4.57;;;;;;;3.25;79.43;100457.53;5075601;28;20462;-76
2021/11/30 03:04:48;;;;;;;7.13;4.82;;;;;;;3.33;78.88;100449.31;5076115;28;20404;-76
2021/11/30 03:07:38;;;;;;;7.68;4.50;;;;;;;3.31;78.99;100436.16;5071451;28;20387;-77
2021/11/30 03:10:11;;;;;;;6.80;4.65;;;;;;;3.32;78.89;100440.50;5070530;28;20413;-76
2021/11/30 03:12:37;;;;;;;7.68;4.40;;;;;;;3.37;78.30;100434.50;5070914;28;20399;-76
2021/11/30 03:15:14;;;;;;;7.10;4.50;;;;;;;3.25;78.70;100453.00;5075928;28;20461;-76
2021/11/30 03:17:40;;;;;;;7.68;3.95;;;;;;;3.21;78.94;100451.75;5070761;28;20816;-76
2021/11/30 03:20:07;;;;;;;5.63;4.03;;;;;;;3.12;79.41;100439.53;5084525;28;20505;-76
2021/11/30 03:22:32;;;;;;;7.05;3.42;;;;;;;3.18;79.52;100440.59;5075411;28;20407;-76
2021/11/30 03:24:58;;;;;;;5.15;3.67;;;;;;;3.23;78.71;100438.97;5084415;28;20500;-76
2021/11/30 03:27:23;;;;;;;10.38;5.18;;;;;;;3.19;78.77;100428.88;5082401;28;20391;-76
2021/11/30 03:29:49;;;;;;;5.45;2.95;;;;;;;3.14;79.36;100429.47;5085401;28;20416;-76
2021/11/30 03:33:59;;;;;;;5.83;3.10;;;;;;;3.20;78.80;100430.50;5074638;28;20905;-76
2021/11/30 03:35:06;;;;;;;7.18;3.60;;;;;;;3.09;79.05;100427.38;5086614;28;20469;-76
2021/11/30 03:37:32;;;;;;;5.47;3.47;;;;;;;3.09;78.94;100422.03;5080033;28;20391;-76
2021/11/30 03:39:58;;;;;;;6.78;4.20;;;;;;;3.07;79.41;100416.03;5080198;28;20420;-76
2021/11/30 03:42:24;;;;;;;6.10;3.47;;;;;;;3.12;78.47;100410.94;5079983;28;20413;-76
2021/11/30 03:44:49;;;;;;;9.70;4.00;;;;;;;3.06;79.14;100410.88;5084612;28;20390;-76
2021/11/30 03:47:15;;;;;;;8.87;4.10;;;;;;;3.15;78.38;100407.03;5074681;28;20396;-75
2021/11/30 03:49:40;;;;;;;6.53;3.67;;;;;;;3.12;78.69;100418.13;5074143;28;20411;-76
2021/11/30 03:52:06;;;;;;;5.88;3.10;;;;;;;3.10;78.23;100412.13;5073913;28;20396;-75
2021/11/30 03:54:31;;;;;;;6.15;3.45;;;;;;;3.02;78.62;100404.28;5084294;28;20405;-76
2021/11/30 03:56:56;;;;;;;3.83;3.03;;;;;;;3.01;78.46;100395.41;5089520;28;20865;-75
2021/11/30 03:59:22;;;;;;;6.90;4.00;;;;;;;2.97;78.44;100391.47;5079282;28;20402;-78
2021/11/30 04:01:48;;;;;;;5.75;2.92;;;;;;;2.95;77.98;100384.66;5074071;28;20959;-76
2021/11/30 04:04:24;;;;;;;4.30;3.13;;;;;;;2.93;78.48;100382.16;5074083;28;20392;-75
2021/11/30 04:06:51;;;;;;;4.25;2.78;;;;;;;2.99;77.78;100373.38;5056678;28;20403;-76
2021/11/30 04:09:17;;;;;;;6.87;3.03;;;;;;;2.99;77.82;100376.06;5089624;28;20437;-75
2021/11/30 04:11:43;;;;;;;5.00;2.60;;;;;;;3.04;77.85;100380.78;5058917;28;20399;-77
2021/11/30 04:14:08;;;;;;;2.60;2.40;;;;;;;2.92;77.83;100372.50;5056404;28;20395;-77
2021/11/30 04:16:34;;;;;;;5.37;2.73;;;;;;;3.07;77.32;100369.69;5056461;28;20402;-77
2021/11/30 04:19:00;;;;;;;8.38;2.80;;;;;;;3.08;76.93;100368.66;5073133;28;20509;-77
2021/11/30 04:21:25;;;;;;;3.80;2.78;;;;;;;3.03;77.08;100363.09;5074664;28;20412;-76
2021/11/30 04:23:51;;;;;;;5.35;3.28;;;;;;;3.01;77.27;100359.78;5074223;28;20414;-76
2021/11/30 04:26:17;;;;;;;3.50;2.60;;;;;;;3.06;76.32;100352.00;5061092;28;20399;-78
2021/11/30 04:28:44;;;;;;;3.95;2.63;;;;;;;3.02;76.75;100356.91;5073315;28;20400;-76
2021/11/30 04:31:10;;;;;;;4.63;2.63;;;;;;;2.95;76.83;100348.03;5081136;28;20896;-77
2021/11/30 04:33:35;;;;;;;5.57;2.50;;;;;;;2.98;76.68;100344.13;5079234;28;20406;-77
2021/11/30 04:36:00;;;;;;;4.13;2.57;;;;;;;2.98;76.95;100342.25;5072701;28;20740;-78
2021/11/30 04:38:26;;;;;;;3.70;1.97;;;;;;;3.06;76.45;100339.41;5079274;28;20380;-77
2021/11/30 04:40:51;;;;;;;4.78;2.35;;;;;;;3.06;75.71;100339.41;5074261;28;20405;-77
2021/11/30 04:43:16;;;;;;;6.33;2.70;;;;;;;3.02;76.69;100340.03;5074017;28;20977;-77
2021/11/30 04:48:14;;;;;;;4.28;2.90;;;;;;;3.03;76.74;100331.78;5088325;28;20809;-77
2021/11/30 04:50:43;;;;;;;3.30;2.50;;;;;;;3.06;76.78;100326.03;5090577;28;20403;-77
2021/11/30 04:53:08;;;;;;;5.53;2.95;;;;;;;3.10;76.61;100310.38;5105893;28;20422;-77
2021/11/30 04:55:34;;;;;;;4.87;2.73;;;;;;;2.98;77.38;100325.38;5083979;28;20450;-77
2021/11/30 04:58:02;;;;;;;5.43;3.10;;;;;;;2.99;77.04;100332.38;5073314;28;20740;-77
2021/11/30 05:00:29;;;;;;;4.60;2.58;;;;;;;2.97;77.24;100315.69;5082874;28;20786;-77
2021/11/30 05:02:54;;;;;;;4.88;2.47;;;;;;;2.96;76.58;100317.56;5107228;28;20409;-76
2021/11/30 05:05:20;;;;;;;6.00;2.70;;;;;;;2.95;77.50;100326.59;5084290;28;20399;-77
2021/11/30 05:07:46;;;;;;;3.80;2.65;;;;;;;2.89;77.63;100323.91;5073001;28;20449;-77
2021/11/30 05:10:13;;;;;;;5.43;3.27;;;;;;;2.83;78.36;100335.41;5084016;28;20414;-77
2021/11/30 05:12:40;;;;;;;5.90;2.83;;;;;;;2.79;78.96;100320.75;5073732;28;20492;-78
2021/11/30 05:15:06;;;;;;;3.40;2.63;;;;;;;2.67;80.14;100325.03;5074096;28;20901;-77
2021/11/30 05:17:31;;;;;;;3.92;3.05;;;;;;;2.68;80.70;100314.09;5055676;28;20411;-77
2021/11/30 05:19:56;;;;;;;5.47;3.13;;;;;;;2.78;79.87;100308.38;5080927;28;20401;-77
2021/11/30 05:22:21;;;;;;;5.37;3.17;;;;;;;2.77;80.47;100296.84;5096399;28;20420;-77
2021/11/30 05:24:47;;;;;;;4.37;3.07;;;;;;;2.76;80.21;100294.38;5085711;28;20388;-77
2021/11/30 05:27:12;;;;;;;4.67;2.97;;;;;;;2.76;80.40;100299.75;5073711;28;20446;-77
2021/11/30 05:29:37;;;;;;;7.20;3.60;;;;;;;2.72;81.11;100298.47;5086106;28;20410;-77
2021/11/30 05:32:03;;;;;;;5.97;3.50;;;;;;;2.58;81.40;100286.88;5074063;28;20585;-77
2021/11/30 05:34:29;;;;;;;6.23;3.50;;;;;;;2.57;81.67;100288.72;5079310;28;20857;-77
2021/11/30 05:36:54;;;;;;;3.50;3.07;;;;;;;2.53;82.25;100292.84;5088471;28;20401;-77
2021/11/30 05:39:19;;;;;;;6.20;3.60;;;;;;;2.54;82.56;100283.78;5073211;28;20420;-77
2021/11/30 05:41:45;;;;;;;4.17;3.17;;;;;;;2.64;81.85;100286.09;5074867;28;20467;-77
2021/11/30 05:44:10;;;;;;;4.17;3.20;;;;;;;2.62;82.21;100277.44;5070736;28;20407;-77
2021/11/30 05:46:36;;;;;;;4.17;3.43;;;;;;;2.45;82.92;100270.75;5081505;28;20399;-77
2021/11/30 05:49:06;;;;;;;4.35;3.55;;;;;;;2.43;83.54;100270.97;5079620;28;20392;-77
2021/11/30 05:51:33;;;;;;;5.82;4.50;;;;;;;2.50;83.33;100268.34;5072704;28;20404;-77
2021/11/30 05:53:58;;;;;;;5.25;3.85;;;;;;;2.55;83.36;100268.56;5078047;28;20425;-76
2021/11/30 05:56:23;;;;;;;7.03;5.47;;;;;;;2.55;83.30;100276.56;5089611;28;20444;-76
2021/11/30 05:58:48;;;;;;;5.50;4.57;;;;;;;2.55;83.19;100272.06;5079869;28;20396;-77
2021/11/30 06:01:22;;;;;;;5.30;4.20;;;;;;;2.54;83.13;100265.03;5079592;28;20422;-76
2021/11/30 06:04:37;;;;;;;7.93;4.18;;;;;;;2.56;83.35;100256.84;5079512;28;20422;-77
2021/11/30 06:07:31;;;;;;;5.10;3.92;;;;;;;2.59;83.21;100253.75;5018811;28;20442;-76
2021/11/30 06:09:56;;;;;;;6.57;4.00;;;;;;;2.46;84.02;100249.16;5079247;28;20402;-77
2021/11/30 06:12:22;;;;;;;4.80;4.13;;;;;;;2.41;84.15;100256.94;5088231;28;20421;-77
2021/11/30 06:14:47;;;;;;;5.45;4.22;;;;;;;2.48;83.98;100263.16;5077664;28;20395;-77
2021/11/30 06:17:14;;;;;;;4.87;4.20;;;;;;;2.42;84.07;100250.59;5071859;28;20396;-77
2021/11/30 06:19:39;;;;;;;5.10;3.95;;;;;;;2.46;83.93;100251.84;5093776;28;20734;-77
2021/11/30 06:22:06;;;;;;;5.07;4.53;;;;;;;2.44;84.20;100258.41;5092139;28;20410;-75
2021/11/30 06:24:43;;;;;;;7.30;4.20;;;;;;;2.44;84.33;100247.69;5078816;28;20391;-77
2021/11/30 06:34:30;;;;;;;7.22;5.40;;;;;;;2.16;85.31;100228.22;4966174;28;20436;-77
2021/11/30 06:36:56;;;;;;;6.90;4.72;;;;;;;2.18;85.40;100221.63;4978450;28;20517;-78
2021/11/30 06:39:21;;;;;;;5.70;4.73;;;;;;;2.26;84.69;100242.06;4980002;28;20975;-77
2021/11/30 06:41:46;;;;;;;7.03;5.07;;;;;;;2.14;85.29;100203.53;4997634;28;20411;-76
2021/11/30 06:44:12;;;;;;;7.17;5.47;;;;;;;2.01;86.07;100206.91;5101241;28;20378;-78
2021/11/30 06:46:37;;;;;;;12.23;5.63;;;;;;;2.03;86.55;100224.44;5064350;28;20402;-77
2021/11/30 06:49:03;;;;;;;9.75;5.47;;;;;;;2.09;85.73;100207.59;5071544;28;20407;-76
2021/11/30 06:51:28;;;;;;;6.97;5.40;;;;;;;1.95;86.24;100216.56;5080585;28;20398;-77
2021/11/30 06:53:53;;;;;;;9.02;5.32;;;;;;;2.03;86.66;100207.56;5078680;28;20430;-76
2021/11/30 06:56:19;;;;;;;7.13;5.30;;;;;;;1.96;86.58;100207.53;5080666;28;20421;-76
2021/11/30 06:58:44;;;;;;;7.47;5.37;;;;;;;2.04;86.49;100219.91;5071587;28;20418;-76
2021/11/30 07:01:12;;;;;;;7.45;5.75;;;;;;;1.88;86.65;100223.69;5077928;28;20763;-76
2021/11/30 07:03:37;;;;;;;9.05;5.55;;;;;;;2.00;86.94;100222.16;5074291;28;20403;-77
2021/11/30 07:12:47;;;;;;;7.70;5.75;;;;;;;2.01;86.86;100225.63;5071937;28;20814;-76
2021/11/30 07:15:10;;;;;;;7.30;5.15;;;;;;;1.89;87.00;100216.50;5072613;28;20453;-80
2021/11/30 07:17:37;;;;;;;6.03;5.23;;;;;;;1.98;86.82;100208.13;5081805;28;20402;-78
2021/11/30 07:20:04;;;;;;;6.27;4.37;;;;;;;2.03;86.60;100191.53;5074034;28;20395;-77
2021/11/30 07:22:36;;;;;;;5.13;4.60;;;;;;;2.02;86.47;100184.53;5052908;28;20431;-76
2021/11/30 07:25:10;;;;;;;7.63;4.95;;;;;;;1.96;86.65;100169.28;5081723;28;20489;-76
2021/11/30 07:27:36;;;;;;;7.85;5.07;;;;;;;1.94;86.86;100174.81;5091058;28;20844;-77
2021/11/30 07:30:02;;;;;;;12.30;5.47;;;;;;;2.03;86.60;100172.81;5083403;28;20471;-77
2021/11/30 07:32:28;;;;;;;6.22;4.32;;;;;;;2.08;86.11;100165.03;5083494;28;20811;-77
2021/11/30 07:34:53;;;;;;;5.97;4.00;;;;;;;2.06;86.27;100181.28;5087369;28;20451;-77
2021/11/30 07:37:18;;;;;;;10.13;5.10;;;;;;;2.05;85.98;100170.75;5090907;28;20405;-77
2021/11/30 07:39:44;;;;;;;5.30;4.57;;;;;;;2.01;85.94;100167.66;5055011;28;20412;-77
2021/11/30 07:42:09;;;;;;;6.43;4.17;;;;;;;1.95;86.60;100165.78;5076272;28;20406;-77
2021/11/30 07:44:34;;;;;;;6.93;4.60;;;;;;;1.92;86.47;100160.81;5062316;28;20403;-77
2021/11/30 07:47:00;;;;;;;8.17;5.17;;;;;;;1.97;86.56;100176.28;5083959;28;20444;-77
2021/11/30 07:49:25;;;;;;;7.60;4.40;;;;;;;1.97;86.44;100173.63;5072726;28;20407;-77
2021/11/30 07:51:51;;;;;;;5.93;4.73;;;;;;;2.00;85.88;100171.38;5086490;28;20412;-77
2021/11/30 07:54:16;;;;;;;4.60;3.92;;;;;;;1.96;86.14;100158.59;5052867;28;20403;-77
2021/11/30 07:56:41;;;;;;;7.68;4.50;;;;;;;1.87;86.38;100157.09;5064810;28;20382;-77
2021/11/30 07:59:08;;;;;;;7.27;4.23;;;;;;;1.81;86.83;100148.00;5082136;28;20485;-77
2021/11/30 08:01:33;;;;;;;6.68;4.25;;;;;;;1.85;87.13;100167.13;5087564;28;20410;-77
2021/11/30 08:03:58;;;;;;;10.87;5.07;;;;;;;1.87;86.71;100157.94;5083618;28;20396;-77
2021/11/30 08:06:24;;;;;;;7.03;4.40;;;;;;;1.88;86.89;100167.56;5082664;28;20439;-77
2021/11/30 08:08:52;;;;;;;5.10;4.50;;;;;;;1.82;86.84;100155.00;5098645;28;20400;-77
2021/11/30 08:11:17;;;;;;;7.05;4.60;;;;;;;1.94;87.10;100152.63;5076221;28;20391;-77
2021/11/30 08:13:42;;;;;;;6.37;4.40;;;;;;;1.87;86.84;100152.59;5080042;28;20394;-77
2021/11/30 08:16:33;;;;;;;6.27;4.50;;;;;;;1.78;87.31;100140.38;5094805;28;20489;-77
2021/11/30 08:19:15;;;;;;;7.60;4.88;;;;;;;1.81;87.79;100153.34;5068924;28;20407;-77
2021/11/30 08:21:46;;;;;;;7.05;5.15;;;;;;;1.87;87.43;100144.56;5094778;28;20491;-77
2021/11/30 08:24:11;;;;;;;10.45;5.38;;;;;;;1.91;87.13;100163.72;5088667;28;20402;-77
2021/11/30 08:26:37;;;;;;;4.93;4.50;;;;;;;1.86;87.67;100160.78;5098427;28;20733;-77
2021/11/30 08:29:02;;;;;;;9.37;5.40;;;;;;;1.79;87.71;100160.75;5075052;28;20402;-77
2021/11/30 08:31:27;;;;;;;6.97;6.10;;;;;;;1.77;88.07;100161.97;5090924;28;20455;-77
2021/11/30 08:33:53;;;;;;;6.07;4.97;;;;;;;1.71;88.24;100170.75;5080685;28;20453;-77
2021/11/30 08:36:18;;;;;;;9.50;5.22;;;;;;;1.74;88.18;100168.53;5084120;28;20738;-77
2021/11/30 08:38:53;;;;;;;7.77;5.03;;;;;;;1.82;88.05;100168.38;5089694;28;20421;-77
2021/11/30 08:44:37;;;;;;;6.78;5.43;;;;;;;1.75;88.41;100172.84;5092606;28;20394;-77
2021/11/30 08:47:08;;;;;;;8.82;6.20;;;;;;;1.75;88.72;100174.66;5078370;28;20374;-78
2021/11/30 08:50:00;;;;;;;7.75;5.38;;;;;;;1.69;88.50;100164.78;5092514;28;20915;-77
2021/11/30 08:52:28;;;;;;;6.87;5.13;;;;;;;1.64;88.72;100172.56;5051785;28;20434;-77
2021/11/30 08:54:54;;;;;;;6.53;5.70;;;;;;;1.67;88.99;100174.84;5071699;28;20412;-77
2021/11/30 08:57:21;;;;;;;8.25;5.28;;;;;;;1.81;88.59;100176.59;5075132;28;20399;-78
2021/11/30 08:59:46;;;;;;;6.85;5.35;;;;;;;1.80;88.20;100177.59;5067938;28;21006;-76
2021/11/30 09:02:15;;;;;;;6.78;5.10;;;;;;;1.69;88.51;100165.59;5092742;28;20493;-77
2021/11/30 09:04:40;;;;;;;6.15;5.55;;;;;;;1.73;88.71;100174.88;5093076;28;20390;-77
2021/11/30 09:07:05;;;;;;;8.57;6.00;;;;;;;1.79;88.22;100170.59;5090490;28;20489;-77
2021/11/30 09:09:31;;;;;;;6.73;5.87;;;;;;;1.76;88.49;100171.00;5064421;28;20874;-77
2021/11/30 09:12:04;;;;;;;9.60;5.90;;;;;;;1.79;88.82;100165.25;5091750;28;20406;-77
2021/11/30 09:14:29;;;;;;;7.88;6.25;;;;;;;1.85;88.67;100159.97;5088539;28;20428;-76
2021/11/30 09:16:56;;;;;;;8.47;6.00;;;;;;;1.78;88.75;100158.28;5073155;28;20388;-77
2021/11/30 09:19:22;;;;;;;8.60;5.90;;;;;;;1.77;89.61;100149.44;5081202;28;20932;-77
2021/11/30 09:21:48;;;;;;;7.22;5.85;;;;;;;1.89;88.89;100149.69;5074993;28;20439;-77
2021/11/30 09:24:15;;;;;;;9.00;5.32;;;;;;;1.80;89.15;100153.56;5088425;28;20402;-77
2021/11/30 09:30:37;;;;;;;8.20;4.68;;;;;;;1.99;88.97;100158.19;4980891;28;20423;-77
2021/11/30 09:33:03;;;;;;;5.78;5.00;;;;;;;2.02;89.07;100147.94;5012717;28;20420;-78
2021/11/30 09:35:28;;;;;;;6.57;4.65;;;;;;;2.05;89.06;100133.34;5042796;28;20431;-79
2021/11/30 09:38:03;;;;;;;5.20;4.70;;;;;;;2.07;88.90;100147.34;5072870;28;20562;-78
2021/11/30 09:40:30;;;;;;;7.85;5.03;;;;;;;2.04;88.97;100134.38;5072262;28;20902;-77
2021/11/30 09:42:56;;;;;;;8.47;5.50;;;;;;;2.14;89.29;100137.50;5055694;28;20475;-77
2021/11/30 09:45:23;;;;;;;7.87;4.40;;;;;;;2.18;88.86;100128.06;5085962;28;20406;-77
2021/11/30 09:47:49;;;;;;;4.72;4.32;;;;;;;2.22;88.66;100128.50;5090905;28;20403;-78
2021/11/30 09:50:17;;;;;;;5.77;4.27;;;;;;;2.20;88.68;100128.72;5073137;28;20407;-78
2021/11/30 09:52:46;;;;;;;7.50;4.90;;;;;;;2.09;88.65;100126.59;5078032;28;20409;-78
2021/11/30 09:55:14;;;;;;;5.70;4.13;;;;;;;2.18;88.40;100114.69;5072099;28;20410;-78
2021/11/30 09:57:40;;;;;;;5.43;4.07;;;;;;;2.21;88.75;100134.84;5054716;28;20443;-77
2021/11/30 10:00:08;;;;;;;6.13;3.75;;;;;;;2.27;88.67;100124.22;5073877;28;20520;-77
2021/11/30 10:02:33;;;;;;;8.68;4.70;;;;;;;2.26;89.04;100108.38;5074739;28;20451;-77
2021/11/30 10:04:59;;;;;;;7.73;4.70;;;;;;;2.23;88.64;100101.56;5072095;28;20489;-77
2021/11/30 10:07:45;;;;;;;6.13;3.63;;;;;;;2.18;89.32;100097.84;5070233;28;20406;-77
2021/11/30 10:10:20;;;;;;;6.97;4.10;;;;;;;2.18;89.47;100082.63;5072298;28;20422;-78
2021/11/30 10:13:05;;;;;;;4.50;4.10;;;;;;;2.22;89.27;100078.53;5077560;28;20922;-77
2021/11/30 10:15:52;;;;;;;8.40;4.43;;;;;;;2.28;89.70;100099.13;5073485;28;20423;-77
2021/11/30 10:18:22;;;;;;;4.90;3.90;;;;;;;2.35;89.09;100099.97;5085442;28;20406;-77
2021/11/30 10:20:50;;;;;;;5.38;3.78;;;;;;;2.38;89.13;100091.53;5055015;28;20402;-78
2021/11/30 10:23:18;;;;;;;5.03;3.78;;;;;;;2.24;89.05;100108.56;5071904;28;20811;-77
2021/11/30 10:25:48;;;;;;;5.93;3.55;;;;;;;2.20;89.40;100104.66;5071992;28;20400;-78
2021/11/30 10:28:18;;;;;;;3.85;3.53;;;;;;;2.26;89.98;100114.53;5083486;28;20833;-77
2021/11/30 10:30:50;;;;;;;5.05;3.63;;;;;;;2.28;89.79;100117.81;5074384;28;20404;-77
2021/11/30 10:33:25;;;;;;;4.47;3.72;;;;;;;2.26;89.69;100109.19;5074594;28;20507;-77
2021/11/30 10:35:56;;;;;;;5.47;3.83;;;;;;;2.32;90.11;100092.34;5071769;28;20496;-77
2021/11/30 10:38:38;;;;;;;4.18;3.30;;;;;;;2.34;90.07;100094.84;5080803;28;20415;-77
2021/11/30 10:41:18;;;;;;;4.20;3.80;;;;;;;2.36;90.17;100090.09;5075388;28;20396;-77
2021/11/30 10:44:26;;;;;;;4.60;3.73;;;;;;;2.31;90.23;100085.34;5080848;28;20919;-77
2021/11/30 10:46:51;;;;;;;5.32;3.60;;;;;;;2.35;90.12;100091.13;4994025;28;20412;-78
2021/11/30 10:49:24;;;;;;;7.27;4.50;;;;;;;2.37;90.32;100070.38;5021919;28;22179;-77
2021/11/30 10:51:53;;;;;;;5.38;4.07;;;;;;;2.33;90.67;100066.44;5079442;28;20413;-78
2021/11/30 10:54:27;;;;;;;4.57;3.37;;;;;;;2.38;90.75;100059.44;5053698;28;20500;-77
2021/11/30 10:57:03;;;;;;;5.93;3.80;;;;;;;2.40;90.32;100064.63;5084232;28;20411;-77
2021/11/30 10:59:30;;;;;;;4.25;3.30;;;;;;;2.38;89.91;100059.44;5053790;28;20804;-77
2021/11/30 11:01:55;;;;;;;5.28;3.58;;;;;;;2.38;89.86;100051.44;5075369;28;20510;-78
2021/11/30 11:04:29;;;;;;;5.20;3.10;;;;;;;2.33;90.03;100053.06;5069924;28;20412;-77
2021/11/30 11:07:12;;;;;;;4.35;3.42;;;;;;;2.42;89.84;100060.72;5070419;28;20403;-78
2021/11/30 11:09:38;;;;;;;4.10;3.10;;;;;;;2.35;89.86;100070.56;5075589;28;20456;-76
2021/11/30 11:12:04;;;;;;;6.50;3.97;;;;;;;2.33;89.99;100061.09;5073124;28;20889;-78
2021/11/30 11:14:30;;;;;;;4.10;3.03;;;;;;;2.30;89.70;100075.69;5077431;28;21030;-78
2021/11/30 11:17:02;;;;;;;3.78;2.95;;;;;;;2.29;89.84;100062.50;5062968;28;20424;-77
2021/11/30 11:19:41;;;;;;;4.05;3.10;;;;;;;2.29;89.55;100074.03;5079862;28;20969;-77
2021/11/30 11:22:15;;;;;;;3.63;3.20;;;;;;;2.31;90.14;100071.16;5074631;28;20416;-77
2021/11/30 11:24:41;;;;;;;3.97;3.53;;;;;;;2.38;89.75;100072.81;5076293;28;20416;-77
2021/11/30 11:27:07;;;;;;;3.35;3.08;;;;;;;2.46;89.41;100071.81;5092257;28;20400;-77
2021/11/30 11:29:41;;;;;;;4.00;3.03;;;;;;;2.44;89.58;100068.50;5072168;28;20782;-78
2021/11/30 11:32:07;;;;;;;5.53;3.47;;;;;;;2.38;89.38;100074.66;5073578;28;20777;-78
2021/11/30 11:34:35;;;;;;;5.03;3.23;;;;;;;2.41;89.50;100067.06;5080304;28;20447;-77
2021/11/30 11:37:03;;;;;;;3.65;3.33;;;;;;;2.46;89.27;100048.59;5076230;28;20488;-77
2021/11/30 11:39:30;;;;;;;3.33;3.13;;;;;;;2.38;89.22;100066.66;5087617;28;20426;-77
2021/11/30 11:41:58;;;;;;;3.20;2.60;;;;;;;2.40;89.71;100064.63;5076121;28;20463;-77
2021/11/30 11:44:24;;;;;;;3.83;3.03;;;;;;;2.44;88.99;100069.34;5085434;28;20417;-77
2021/11/30 11:46:52;;;;;;;4.07;3.05;;;;;;;2.45;89.61;100065.66;5083834;28;20938;-77
2021/11/30 11:49:23;;;;;;;3.67;2.97;;;;;;;2.49;88.84;100061.56;5077177;28;20482;-76
2021/11/30 11:51:50;;;;;;;4.90;2.92;;;;;;;2.47;89.46;100068.13;5078983;28;21022;-76
2021/11/30 11:54:29;;;;;;;5.43;3.25;;;;;;;2.41;89.31;100068.91;5086512;28;20405;-78
2021/11/30 11:57:20;;;;;;;3.30;3.00;;;;;;;2.42;89.57;100071.41;5076048;28;20493;-78
2021/11/30 11:59:47;;;;;;;6.28;4.32;;;;;;;2.46;89.77;100080.69;5080711;28;20408;-77
2021/11/30 12:02:20;;;;;;;2.80;2.60;;;;;;;2.46;89.40;100086.03;5105147;28;20414;-77
2021/11/30 12:04:51;;;;;;;4.93;2.80;;;;;;;2.49;89.36;100085.63;5083514;28;20796;-77